world map with LCC marked

LCC - Airport

This information may not be accurate or current and is not valid for navigation or flight planning. No warranty of fitness for any purpose is made or implied.

flag of Apuliaflag of Italy

Donate via PayPal

Additional information is available on the NEW Great Circle Mapper

Location
City:  Lecce, Apulia, Italy
Name:Galatina
ICAO / IATA:LIBN / LCC

Details
Type:Airport (Aerodrome, Airfield)
Use:Military
Latitude:40°14'21"N (40.239228)
Longitude:18°08'00"E (18.133325)
Datum:WGS 1984
Elevation:156 ft (48 m)
Runways:1
Longest:6637 × 197 ft (2023 × 60 m)

Time
Timezone:UTC+1 (DST+4)
Local Time:

Weather
METAR:LIBN  041355Z 05007KT 9999 SCT040 15/12 Q1013 RMK BKN BKN110 VIS MIN 9999 WIND THR14 05007KT WIND THR32 07007KT BLU
TAF:LIBN  (expired)

Related Locations
Nearby:
Farthest:CHT: 11651 mi / 18751 km
Waitangi [Tuuta], CIT, NZ

Find:

   beyond  
but within

Other Information
Maps:
Sources:

  


 


Great Circle Mapper   Great Circle Mapper
Great Circle Mapper FAQ   Great Circle Mapper FAQ
  Karl's Home Page
KLSē   KLSē Home
   GC on Facebook
Airlines of the World   Airlines of the World
Donate via PayPal


Copyright © 2004-2020, Karl L. Swartz. All rights reserved.
All trademarks mentioned herein belong to their respective owners.

Please see credits for attribution and copyright information.

Karl Swartz <karl@kls2.com>
  Powered by FreeBSD
Valid HTML 4.01!
Labeled with ICRA
hCard Microformat
Geo Microformat